createdAt,value
2022-09-24T00:13:57.447Z,16.57
2022-09-24T00:29:13.372Z,16.53
2022-09-24T00:44:30.353Z,16.27
2022-09-24T00:59:46.345Z,16.06
2022-09-24T01:15:02.283Z,15.95
2022-09-24T01:30:18.302Z,15.58
2022-09-24T01:45:36.243Z,15.39
2022-09-24T02:00:53.288Z,15.16
2022-09-24T02:16:10.233Z,15.09
2022-09-24T02:31:26.165Z,15.02
2022-09-24T02:46:43.232Z,14.95
2022-09-24T03:01:59.243Z,14.84
2022-09-24T03:17:15.067Z,14.81
2022-09-24T03:32:32.043Z,14.81
2022-09-24T03:47:50.006Z,14.65
2022-09-24T04:03:07.009Z,14.58
2022-09-24T04:18:22.961Z,14.53
2022-09-24T04:33:38.931Z,14.58
2022-09-24T04:48:55.908Z,14.54
2022-09-24T05:04:11.866Z,14.48
2022-09-24T05:19:27.873Z,14.39
2022-09-24T05:34:44.817Z,14.45
2022-09-24T05:50:02.824Z,14.41
2022-09-24T06:05:19.771Z,14.5
2022-09-24T06:20:35.772Z,14.53
2022-09-24T06:35:51.711Z,14.6
2022-09-24T06:51:08.718Z,14.63
2022-09-24T07:06:24.645Z,14.74
2022-09-24T07:21:41.651Z,14.95
2022-09-24T07:36:58.622Z,15.08
2022-09-24T07:52:15.596Z,15.17
2022-09-24T08:07:31.569Z,15.3
2022-09-24T08:22:47.550Z,15.48
2022-09-24T08:38:03.552Z,15.79
2022-09-24T08:53:20.492Z,16.14
2022-09-24T09:08:50.454Z,16.22
2022-09-24T09:23:53.434Z,16.4
2022-09-24T09:39:10.407Z,16.56
2022-09-24T09:54:27.334Z,16.4
2022-09-24T10:09:43.346Z,16.52
2022-09-24T10:24:59.270Z,16.8
2022-09-24T10:40:11.408Z,17.25
2022-09-24T10:55:28.209Z,17.57
2022-09-24T11:10:45.218Z,18.52
2022-09-24T11:26:01.147Z,19.09
2022-09-24T11:41:18.128Z,18.88
2022-09-24T11:56:34.084Z,18.89
2022-09-24T12:11:50.107Z,19.35
2022-09-24T12:27:07.034Z,19.6
2022-09-24T12:42:25.086Z,20.73
2022-09-24T12:57:41.971Z,20.25
2022-09-24T13:12:57.968Z,21.31
2022-09-24T13:28:13.900Z,20.75
2022-09-24T13:43:30.881Z,20.31
2022-09-24T13:58:46.835Z,21.02
2022-09-24T14:14:02.831Z,22.79
2022-09-24T14:29:19.784Z,23.33
2022-09-24T14:44:37.738Z,23.25
2022-09-24T14:59:54.745Z,22.33
2022-09-24T15:15:10.676Z,23.33
2022-09-24T15:30:26.680Z,21.34
2022-09-24T15:45:43.609Z,21.73
2022-09-24T16:00:59.622Z,22.41
2022-09-24T16:16:15.575Z,21.63
2022-09-24T16:31:32.635Z,20.84
2022-09-24T16:46:50.573Z,20.33
2022-09-24T17:02:07.478Z,19.87
2022-09-24T17:17:23.503Z,19.31
2022-09-24T17:32:39.397Z,19.09
2022-09-24T17:47:56.404Z,18.64
2022-09-24T18:03:12.435Z,18.49
2022-09-24T18:03:52.208Z,18.49
2022-09-24T18:04:38.421Z,18.49
2022-09-24T18:18:30.311Z,18.08
2022-09-24T18:33:46.286Z,17.81
2022-09-24T18:49:03.430Z,17.59
2022-09-24T19:04:19.228Z,17.39
2022-09-24T19:19:35.228Z,17.32
2022-09-24T19:34:51.164Z,16.6
2022-09-24T19:50:08.171Z,16.29
2022-09-24T20:05:25.102Z,16.11
2022-09-24T20:20:42.118Z,15.74
2022-09-24T20:35:58.059Z,15.56
2022-09-24T20:51:15.052Z,15.41
2022-09-24T21:06:31.027Z,15.22
2022-09-24T21:21:47.013Z,14.97
2022-09-24T21:22:26.826Z,14.97
2022-09-24T21:37:03.976Z,14.67
2022-09-24T21:52:20.938Z,14.38
2022-09-24T22:07:37.925Z,14.06
2022-09-24T22:22:54.892Z,13.94
2022-09-24T22:38:11.866Z,14.02
2022-09-24T22:53:28.829Z,13.98
2022-09-24T23:08:44.851Z,14.02
2022-09-24T23:24:00.784Z,14.05
2022-09-24T23:39:16.758Z,14.04
2022-09-24T23:54:34.708Z,13.87
